createdAt,value
2023-09-29T00:03:52.418Z,59.8
2023-09-29T00:09:58.629Z,59.8
2023-09-29T00:16:04.937Z,59.8
2023-09-29T00:22:11.123Z,59.7
2023-09-29T00:28:17.523Z,59.7
2023-09-29T00:34:23.707Z,59.7
2023-09-29T00:40:29.881Z,59.7
2023-09-29T00:46:36.093Z,59.7
2023-09-29T00:52:42.284Z,59.7
2023-09-29T00:58:48.661Z,59.7
2023-09-29T01:04:54.867Z,59.7
2023-09-29T01:11:01.050Z,59.6
2023-09-29T01:17:09.112Z,59.6
2023-09-29T01:23:15.474Z,59.6
2023-09-29T01:29:22.055Z,59.7
2023-09-29T01:35:28.063Z,59.6
2023-09-29T01:41:35.075Z,59.6
2023-09-29T01:47:41.571Z,59.6
2023-09-29T01:53:47.980Z,59.6
2023-09-29T01:59:54.482Z,59.6
2023-09-29T02:06:00.840Z,59.6
2023-09-29T02:12:06.894Z,59.6
2023-09-29T02:18:13.265Z,59.6
2023-09-29T02:24:19.806Z,59.6
2023-09-29T02:30:26.264Z,59.6
2023-09-29T02:36:32.828Z,59.6
2023-09-29T02:42:38.977Z,59.5
2023-09-29T02:48:45.243Z,59.6
2023-09-29T02:54:51.554Z,59.6
2023-09-29T03:00:57.987Z,59.6
2023-09-29T03:07:04.125Z,59.5
2023-09-29T03:13:09.911Z,59.6
2023-09-29T03:19:16.307Z,59.5
2023-09-29T03:25:22.705Z,59.6
2023-09-29T03:31:29.087Z,59.6
2023-09-29T03:37:35.478Z,59.5
2023-09-29T03:43:41.464Z,59.6
2023-09-29T03:49:47.879Z,59.5
2023-09-29T03:55:53.847Z,59.5
2023-09-29T04:02:00.219Z,59.5
2023-09-29T04:08:06.621Z,59.5
2023-09-29T04:14:33.587Z,59.5
2023-09-29T04:20:40.588Z,59.5
2023-09-29T04:26:46.941Z,59.5
2023-09-29T04:32:53.223Z,59.5
2023-09-29T04:38:59.700Z,59.4
2023-09-29T04:45:06.324Z,59.5
2023-09-29T04:51:12.668Z,59.5
2023-09-29T04:57:18.656Z,59.5
2023-09-29T05:03:25.323Z,59.5
2023-09-29T05:09:31.660Z,59.4
2023-09-29T05:15:38.046Z,59.4
2023-09-29T05:21:44.436Z,59.4
2023-09-29T05:27:50.858Z,59.4
2023-09-29T05:33:57.627Z,59.4
2023-09-29T05:40:04.051Z,59.4
2023-09-29T05:46:10.456Z,59.4
2023-09-29T05:52:17.216Z,59.3
2023-09-29T05:58:23.605Z,59.3
2023-09-29T06:04:29.893Z,59.3
2023-09-29T06:10:36.406Z,59.3
2023-09-29T06:16:42.813Z,59.3
2023-09-29T06:22:49.200Z,59.3
2023-09-29T06:28:55.796Z,59.3
2023-09-29T06:35:01.577Z,59.3
2023-09-29T06:41:07.770Z,59.2
2023-09-29T06:47:13.940Z,59.3
2023-09-29T06:53:20.549Z,59.2
2023-09-29T06:59:27.048Z,59.5
2023-09-29T07:05:33.274Z,60.2
2023-09-29T07:11:39.604Z,61
2023-09-29T07:17:47.542Z,60.9
2023-09-29T07:23:56.503Z,60.9
2023-09-29T07:30:03.145Z,60.7
2023-09-29T07:36:09.308Z,60.4
2023-09-29T07:42:16.761Z,58.7
2023-09-29T07:48:23.755Z,60
2023-09-29T07:54:30.509Z,60.3
2023-09-29T08:00:37.122Z,60.3
2023-09-29T08:06:43.704Z,60.3
2023-09-29T08:12:50.513Z,60
2023-09-29T08:18:57.667Z,60
2023-09-29T08:25:04.921Z,60.6
2023-09-29T08:31:11.447Z,60.9
2023-09-29T08:37:17.951Z,60.9
2023-09-29T08:43:24.327Z,61
2023-09-29T08:49:50.368Z,61
2023-09-29T08:56:00.239Z,61
2023-09-29T09:02:06.242Z,61
2023-09-29T09:08:13.644Z,60.9
2023-09-29T09:14:20.025Z,60.9
2023-09-29T09:20:26.445Z,60.7
2023-09-29T09:26:32.825Z,60.6
2023-09-29T09:32:39.660Z,60.5
2023-09-29T09:38:45.822Z,60.5
2023-09-29T09:44:52.105Z,60.4
2023-09-29T09:50:59.262Z,60.4
2023-09-29T09:57:05.438Z,60.2
2023-09-29T10:03:11.624Z,60.1
2023-09-29T10:09:18.022Z,60.1
2023-09-29T10:15:24.711Z,60
2023-09-29T10:21:30.978Z,59.9
2023-09-29T10:27:38.181Z,60.1
2023-09-29T10:33:44.191Z,59.8
2023-09-29T10:39:50.388Z,59.7
2023-09-29T10:45:57.004Z,59.5
2023-09-29T10:52:03.545Z,59.5
2023-09-29T10:58:11.954Z,59.3
2023-09-29T11:04:18.845Z,59.1
2023-09-29T11:10:24.996Z,59.1
2023-09-29T11:16:31.601Z,58.9
2023-09-29T11:22:37.772Z,58.8
2023-09-29T11:28:43.969Z,58.6
2023-09-29T11:34:50.338Z,58.6
2023-09-29T11:40:56.732Z,58.6
2023-09-29T11:47:03.140Z,58.5
2023-09-29T11:53:09.326Z,58.6
2023-09-29T11:59:15.312Z,58.8
2023-09-29T12:05:21.493Z,58.8
2023-09-29T12:11:27.703Z,58.8
2023-09-29T12:17:34.105Z,58.7
2023-09-29T12:23:40.699Z,58.8
2023-09-29T12:29:47.336Z,58.8
2023-09-29T12:35:53.898Z,58.8
2023-09-29T12:42:00.120Z,58.8
2023-09-29T12:48:06.702Z,58.9
2023-09-29T12:54:13.089Z,59
2023-09-29T13:00:19.497Z,59
2023-09-29T13:06:25.676Z,59.1
2023-09-29T13:12:35.738Z,59
2023-09-29T13:18:41.946Z,59.1
2023-09-29T13:24:48.284Z,59.1
2023-09-29T13:30:58.261Z,59.2
2023-09-29T13:37:04.766Z,59.3
2023-09-29T13:43:10.952Z,59.3
2023-09-29T13:49:17.361Z,59.4
2023-09-29T13:55:23.759Z,59.5
2023-09-29T14:01:30.012Z,59.5
2023-09-29T14:07:36.109Z,59.6
2023-09-29T14:13:42.356Z,59.7
2023-09-29T14:19:48.895Z,59.8
2023-09-29T14:25:55.079Z,59.9
2023-09-29T14:32:01.082Z,60.2
2023-09-29T14:38:07.257Z,60.2
2023-09-29T14:44:13.645Z,60.1
2023-09-29T14:50:20.053Z,60.2
2023-09-29T14:56:26.239Z,60.4
2023-09-29T15:02:32.616Z,60.4
2023-09-29T15:08:39.016Z,60.2
2023-09-29T15:14:45.412Z,60.2
2023-09-29T15:20:51.462Z,60.2
2023-09-29T15:26:58.327Z,60.3
2023-09-29T15:33:04.599Z,60.4
2023-09-29T15:39:11.022Z,60.4
2023-09-29T15:45:16.986Z,60.4
2023-09-29T15:51:27.918Z,60.4
2023-09-29T15:57:34.357Z,60.5
2023-09-29T16:03:41.368Z,60.6
2023-09-29T16:09:47.443Z,60.6
2023-09-29T16:15:53.862Z,60.6
2023-09-29T16:22:00.042Z,60.6
2023-09-29T16:28:06.429Z,60.6
2023-09-29T16:34:12.896Z,60.7
2023-09-29T16:40:32.545Z,60.7
2023-09-29T16:46:38.497Z,60.7
2023-09-29T16:52:44.904Z,60.7
2023-09-29T16:58:51.288Z,60.7
2023-09-29T17:04:57.730Z,60.7
2023-09-29T17:11:04.494Z,60.6
2023-09-29T17:17:11.122Z,60.6
2023-09-29T17:23:17.693Z,60.6
2023-09-29T17:29:23.865Z,60.5
2023-09-29T17:35:30.059Z,60.4
2023-09-29T17:41:36.447Z,60.4
2023-09-29T17:47:42.517Z,60.4
2023-09-29T17:53:48.821Z,60.4
2023-09-29T17:59:55.434Z,60.3
2023-09-29T18:06:01.434Z,60.3
2023-09-29T18:12:08.439Z,60.3
2023-09-29T18:18:14.877Z,60.3
2023-09-29T18:24:21.008Z,60.3
2023-09-29T18:30:27.112Z,60.2
2023-09-29T18:36:33.388Z,60.2
2023-09-29T18:42:39.791Z,60.2
2023-09-29T18:48:45.578Z,60.2
2023-09-29T18:54:51.947Z,60.2
2023-09-29T19:00:57.717Z,60.2
2023-09-29T19:07:03.970Z,60.1
2023-09-29T19:13:10.319Z,60.1
2023-09-29T19:19:16.498Z,60.1
2023-09-29T19:25:23.081Z,60.1
2023-09-29T19:31:28.932Z,60
2023-09-29T19:37:35.260Z,60
2023-09-29T19:43:41.434Z,60
2023-09-29T19:49:48.033Z,59.9
2023-09-29T19:55:54.661Z,59.9
2023-09-29T20:02:00.878Z,59.9
2023-09-29T20:08:07.223Z,59.9
2023-09-29T20:14:13.398Z,59.9
2023-09-29T20:20:19.810Z,59.9
2023-09-29T20:26:25.572Z,59.9
2023-09-29T20:32:32.021Z,59.9
2023-09-29T20:38:38.381Z,59.9
2023-09-29T20:44:44.561Z,59.9
2023-09-29T20:50:50.783Z,60
2023-09-29T20:56:57.340Z,60.1
2023-09-29T21:03:04.188Z,60.2
2023-09-29T21:09:10.176Z,60.2
2023-09-29T21:15:16.844Z,60.1
2023-09-29T21:21:23.176Z,60.2
2023-09-29T21:27:29.322Z,60.4
2023-09-29T21:33:35.932Z,60.8
2023-09-29T21:39:42.117Z,60.8
2023-09-29T21:45:48.508Z,60.8
2023-09-29T21:51:55.887Z,60.7
2023-09-29T21:58:03.809Z,60.7
2023-09-29T22:04:11.365Z,60.6
2023-09-29T22:10:17.341Z,60.3
2023-09-29T22:16:24.185Z,60.2
2023-09-29T22:22:30.531Z,60.1
2023-09-29T22:28:37.532Z,60
2023-09-29T22:34:44.026Z,60
2023-09-29T22:40:50.410Z,60
2023-09-29T22:46:56.609Z,59.8
2023-09-29T22:53:02.992Z,59.7
2023-09-29T22:59:09.209Z,59.7
2023-09-29T23:05:15.042Z,59.7
2023-09-29T23:11:21.582Z,59.7
2023-09-29T23:17:27.989Z,59.5
2023-09-29T23:23:34.571Z,59.4
2023-09-29T23:29:40.596Z,59.5
2023-09-29T23:35:46.919Z,59.5
2023-09-29T23:41:53.601Z,59.4
2023-09-29T23:47:59.359Z,59.4
2023-09-29T23:54:05.747Z,59.3
